Terminal Aerodrome Forecast
Issued by NWS

Home | Current Version | Previous Version | Text Only | Print | Product List | Glossary On
Versions: 1 2 3 4 5 6 7 8 9 10 11 12 13 14 15 16 17 18 19 20 21 22 23 24 25 26 27 28
588
FTUS44 KFWD 271459 AAB
TAFDAL
TAF AMD
KDAL 271459Z 2715/2812 32010KT P6SM SCT035
      TEMPO 2716/2717 BKN009
     FM271700 33010KT P6SM FEW250
     FM280100 04006KT P6SM FEW250
     FM280900 08007KT P6SM SCT250
     FM281100 09007KT P6SM -RA BKN015 BKN250=

USA.gov is the U.S. government's official web portal to all federal, state and local government web resources and services.